Choose a state:
Most recent flow and stage for Montana
(Stations highlighted in red are currently above flood stage)
USGS
station
ID
USGS station name NWS
flood
stage
(ft)
Most recent
stage
(ft)
Most recent
flow
(cfs)
Historical
peaks
(cfs)
Most recent
local
date/time
NWS
station
ID
05014300 Swiftcurrent Cr ab Swiftcurrent Lk at Many Glacier   3.54 337 2,000 2015-06-03 02:30:00 SCLM8
05014500 Swiftcurrent Creek at Many Glacier MT   3.86 750 6,700 2015-06-03 02:30:00 MGGM8
05015500 Lake Sherburne at Sherburne MT   4781.48

 

  2015-06-03 02:00:00 SBUM8
05017500 St. Mary River near Babb MT   4.60 2,550 16,500 2015-06-03 02:15:00 SMYM8
05018000 St. Mary Canal at intake near Babb MT   7.42 596   2015-06-03 02:15:00 SCIM8
05018500 St. Mary Canal at St. Mary Crossing near Babb MT   7.53 579   2015-06-03 02:15:00 SCCM8
05020500 St. Mary River at International Boundary   6.69 3,180 40,000 2015-06-03 02:00:00  
06006000 Red Rock Cr ab Lakes nr Lakeview MT   3.30 62 293 2015-06-03 02:30:00 RRLM8
06012500 Red Rock R bl Lima Reservoir nr Monida MT   2.88 398 2,500 2015-06-03 02:30:00 LRRM8
06016000 Beaverhead River at Barretts MT   1.51 430 3,720 2015-06-03 02:15:00 BARM8
06017000 Beaverhead River at Dillon MT   3.05 93 1,740 2015-06-03 02:15:00 DILM8
06018500 Beaverhead River near Twin Bridges MT 7 3.83 139 3,130 2015-06-03 02:15:00 TWNM8
06019500 Ruby River above reservoir near Alder, MT   3.86 431 3,810 2015-06-03 02:45:00 RRRM8
06020600 Ruby River below reservoir near Alder, MT   3.59 347 3,010 2015-06-03 02:45:00 RRBM8
06023000 Ruby River near Twin Bridges MT   2.87 265 1,500 2015-06-03 02:45:00 RTBM8
06023100 Beaverhead River at Twin Bridges, MT   3.23 528   2015-06-03 02:30:00 TWBM8
06023500 Big Hole River near Jackson MT   2.81 275 938 2015-06-03 02:15:00 JKSM8
06023800 Big Hole River ab Spring Creek nr Jackson MT   3.63 235 305 2015-06-03 03:00:00 SCRM8
06024020 Big Hole River at Miner Creek nr Jackson MT   3.14 756 2,300 2015-06-03 02:15:00 MCKM8
06024450 Big Hole River bl Big Lake Cr at Wisdom MT   4.25 886 4,300 2015-06-03 02:45:00 BGKM8
06024540 Big Hole River bl Mudd Cr nr Wisdom MT   4.37 1,840 6,660 2015-06-03 02:30:00 BHDM8
06024580 Big Hole River near Wise River MT   4.70 2,600 9,130 2015-06-03 02:30:00 WSVM8
06025250 Big Hole River at Maiden Rock nr Divide MT   5.50 3,560 10,600 2015-06-03 02:45:00 MRDM8
06025500 Big Hole River near Melrose MT 6 4.25 3,770 23,000 2015-06-03 02:15:00 MLRM8
06026210 Big Hole River near Glen MT   4.62 3,750 11,900 2015-06-03 02:30:00 GNLM8
06026420 Big Hole R bl Hamilton Ditch nr Twin Bridges, MT   4.09 3,400 11,200 2015-06-03 02:30:00  
06026500 Jefferson River near Twin Bridges MT 10 6.19 4,480 16,500 2015-06-03 02:15:00 TWIM8
06027600 Jefferson River at Parsons Bdg nr Silver Star, MT   5.87 3,830 13,600 2015-06-03 02:30:00 PBRM8
06033000 Boulder River near Boulder MT   6.58 453 7,000 2015-06-03 02:15:00  
06035000 Willow Creek near Harrison MT   2.92 251 813 2015-06-03 02:15:00 WCHM8
06036650 Jefferson River near Three Forks MT 8 5.53 4,810 17,400 2015-06-03 02:00:00 TFKM8
06036805 Firehole River at Old Faithful, YNP   2.74 84 477 2015-06-03 03:00:00 FOFW4
06036905 Firehole River near West Yellowstone MT   3.27 332 2,050 2015-06-03 02:00:00 FRYW4
06036940 Tantalus Creek at Norris Junction, YNP   1.55 4.4 25 2015-06-03 02:30:00 TCKW4
06037100 Gibbon River at Madison Jct, YNP   4.68 190 1,010 2015-06-03 02:00:00 GMJW4
06037500 Madison River near West Yellowstone MT   1.96 537 2,820 2015-06-03 02:30:00 MDSM8
06038500 Madison River bl Hebgen Lake nr Grayling MT   2.57 2,220 10,200 2015-06-03 02:45:00 HBDM8
06038800 Madison River at Kirby Ranch nr Cameron MT   3.00 2,700 5,030 2015-06-03 02:45:00 CMRM8
06040000 Madison River near Cameron MT   3.82 3,880 8,830 2015-06-03 02:15:00 CMNM8
06040800 Madison River ab powerplant nr McAllister MT   8.09 2,780 5,940 2015-06-03 02:45:00 MRPM8
06041000 Madison River bl Ennis Lake nr McAllister MT   5.31 4,290 9,550 2015-06-03 02:45:00 MADM8
06043500 Gallatin River near Gallatin Gateway MT 6 4.30 3,590 9,160 2015-06-03 02:00:00 GLGM8
06048650 E Gallatin R ab Water Reclamation Fa nr Bozeman MT   4.74 302   2015-06-03 02:30:00  
06052500 Gallatin River at Logan MT 9 7.55 3,990 9,840 2015-06-03 02:00:00 LOGM8
06054500 Missouri River at Toston MT 10.5 7.74 12,700 34,000 2015-06-03 02:00:00 TOSM8
06061500 Prickly Pear Creek near Clancy MT   2.04 152 2,300 2015-06-03 02:30:00 PKPM8
06062500 Tenmile Creek near Rimini MT   2.63 86 3,290 2015-06-03 02:45:00 RIMM8
06063000 Tenmile Creek near Helena MT   3.03 107 3,770 2015-06-03 02:15:00  
06065500 Missouri River bl Hauser Dam near Helena MT   4.19 4,820 33,300 2015-06-03 02:00:00 HASM8
06066500 Missouri River bl Holter Dam nr Wolf Cr MT   3.21 5,050 34,800 2015-06-03 02:45:00 HTRM8
06071300 Little Prickly Pear Cr at Wolf Cr MT   3.41 129 4,500 2015-06-03 02:45:00 LPPM8
06073500 Dearborn River near Craig MT 6.5 4.85 922 15,400 2015-06-03 02:15:00 DBRM8
06074000 Missouri River at Cascade MT   7.51 5,560 54,250 2015-06-03 02:30:00  
06076690 Smith River near Ft Logan MT   3.79 407 4,600 2015-06-03 02:30:00 SFLM8
06077200 Smith River bl Eagle Cr nr Fort Logan MT   4.79 829 4,030 2015-06-03 02:15:00 SMHM8
06077500 Smith River near Eden MT   4.84 1,100 12,300 2015-06-03 02:45:00 EDNM8
06078200 Missouri River near Ulm MT 13.5 5.30 6,460 35,000 2015-06-03 02:00:00 ULMM8
06078500 North Fork Sun River near Augusta MT 9 5.92 1,190 51,100 2015-06-03 02:30:00 NFSM8
06079000 South Fork Sun River near Augusta MT   4.15 1,610 4,370 2015-06-03 02:15:00 SSNM8
06082200 Sun River bl Willow Cr nr Augusta MT   4.37 3,420 46,700 2015-06-03 02:15:00  
06085800 Sun River at Simms MT 7.5 5.29 3,210 50,000 2015-06-03 02:30:00 SSRM8
06088500 Muddy Creek at Vaughn MT 7 4.56 271 7,600 2015-06-03 02:30:00 MDYM8
06089000 Sun River near Vaughn MT 6 3.98 3,190 53,500 2015-06-03 02:00:00 VAUM8
06090000 Missouri River at Great Falls MT   11.39

 

  2015-06-03 02:30:00  
06090300 Missouri River near Great Falls MT   4.48 10,000 72,000 2015-06-03 02:45:00 GFLM8
06090500 Belt Creek near Monarch MT   4.34 890 11,000 2015-06-03 02:15:00  
06090650 Lake Creek near Power MT   0.10 0.23 300 2015-06-03 02:30:00 LCPM8
06090800 Missouri River at Fort Benton MT 13.5 3.90 10,500 140,000 2015-06-03 02:30:00 FBNM8
06091700 Two Medicine River bl South Fork nr Browning MT   4.12 1,110 11,700 2015-06-03 02:15:00 TMRM8
06093200 Badger Cr bl Four Horns Canal nr Browning MT 7 5.45 485 20,700 2015-06-03 02:15:00 BDCM8
06099000 Cut Bank Creek at Cut Bank MT   3.87 829 16,600 2015-06-03 02:30:00  
06099500 Marias River near Shelby MT 9 5.35 2,120 241,000 2015-06-03 02:30:00 SHLM8
06101500 Marias River near Chester MT   3.63 610 10,400 2015-06-03 02:15:00 MRCM8
06102050 Marias River near Loma MT   1.47 654 10,800 2015-06-03 02:15:00 LOMM8
06102500 Teton River bl South Fork nr Choteau MT   5.00 396 54,600 2015-06-03 02:45:00 TSFM8
06108000 Teton River near Dutton MT 9 2.56 158 71,300 2015-06-03 02:30:00 DTTM8
06108800 Teton River at Loma MT   2.73 165 3,910 2015-06-03 02:30:00 LTRM8
06109500 Missouri River at Virgelle MT 17 5.49 12,100 122,000 2015-06-03 02:00:00 VRGM8
06110020 Judith River above Carr Creek near Utica MT   4.69 464   2015-06-03 02:30:00  
06111800 Big Spring Cr at R&B Trading Post nr Lewistown MT   4.65 478   2015-06-03 02:30:00  
06114700 Judith River nr mouth, nr Winifred MT   7.26 1,710 15,300 2015-06-03 02:15:00 JDRM8
06115200 Missouri River near Landusky MT 25 17.63 13,900 137,000 2015-06-03 02:00:00 LDKM8
06118500 South Fork Musselshell R ab Martinsdale MT   4.86 299 5,240 2015-06-03 02:30:00  
06119600 Musselshell River nr Martinsdale, MT   3.94 433 4,780 2015-06-03 02:15:00 MRMM8
06120500 Musselshell River at Harlowton MT 7 4.86 1,060 7,270 2015-06-03 03:00:00 HLWM8
06123030 Musselshell River ab Mud Cr nr Shawmut MT 6.5 6.31 1,550 8,900 2015-06-03 02:30:00 SHAM8
06125600 Musselshell River ab Big Coulee Creek at Lavina MT   5.39 1,260 4,890 2015-06-03 02:30:00  
06126500 Musselshell River near Roundup MT 10 4.18 909 15,000 2015-06-03 02:00:00 RUPM8
06127500 Musselshell River at Musselshell MT 11 5.79 848 16,200 2015-06-03 02:30:00 MUSM8
06130000 Flatwillow Creek near Mosby MT   15.98 6,530 19,700 2014-08-25 15:00:00  
06130500 Musselshell River at Mosby MT 10 4.74 1,000 25,100 2015-06-03 02:45:00 MSBM8
06131200 Nelson Creek near Van Norman MT   1.90 0.34 1,750 2015-06-03 02:15:00  
06132000 Missouri River below Fort Peck Dam MT   2.81

 

65,900 2015-06-03 02:15:00 FPMM8
06133500 N F Milk River ab St. Mary canal nr Browning MT   2.20 48 3,090 2015-06-03 02:15:00 NFMM8
06135000 Milk River at Eastern Crossing of Int Bndry 9.5 4.35 852 14,400 2015-06-03 02:15:00 ERNM8
06139500 Big Sandy Creek near Havre MT 8.5 2.50 20 6,000 2015-06-03 02:30:00 BSMM8
06140500 Milk River at Havre MT 10 2.59 671 20,000 2015-06-03 02:15:00 HVRM8
06142400 Clear Creek near Chinook MT 5.5 2.40 29 1,490 2015-06-03 02:30:00 CCMM8
06151500 Battle Creek near Chinook MT 10 1.72 36 19,400 2015-06-03 02:30:00 BCMM8
06154100 Milk River near Harlem MT 21 5.57 454 19,000 2015-06-03 02:30:00 HRLM8
06154400 Peoples Creek near Hays MT   3.18 17 8,460 2015-06-03 02:15:00 PEOM8
06155030 Milk River near Dodson MT 23 3.37 18 13,200 2015-06-03 02:15:00 DMRM8
06155500 Milk River at Malta MT   1.71 109 24,000 2015-06-03 02:45:00  
06164000 Frenchman River at international boundary   1.504 1.75 22,700 2015-06-03 02:25:00  
06164510 Milk River at Juneberg Bridge nr Saco MT 20 3.30 211 12,400 2015-06-03 02:00:00 SACM8
06166000 Beaver Cr bl Guston Coulee nr Saco MT 11

 

54 23,500 2015-06-03 02:15:00 GSCM8
06167500 Beaver Creek near Hinsdale MT 14 4.45 164 8,210 2015-06-03 02:30:00 BCHM8
06169500 Rock Creek bl Horse Creek nr int'l boundary   2.78 6.3 5,110 2015-06-03 02:30:00 ORHM8
06172310 Milk River at Tampico MT 23 3.99 465 19,700 2015-06-03 02:30:00 TMPM8
06174500 Milk River at Nashua MT 20 2.80 455 45,300 2015-06-03 02:00:00 NSHM8
06175100 Missouri R at W Frazer Pump Plant nr Frazer MT   9.23

 

  2015-06-03 02:00:00  
06175510 Missouri R at E Frazer Pump Plant nr Frazer MT   43.61

 

  2015-06-03 02:30:00  
06175520 Missouri River near Oswego MT   84.87

 

  2015-06-03 02:45:00  
06177000 Missouri River near Wolf Point MT   11.69 8,860 93,200 2015-06-03 02:00:00 RDVM8
06177500 Redwater River at Circle MT 11 3.53 4.5 6,960 2015-06-03 02:30:00 RRCM8
06178000 Poplar River at international boundary 6 2.49 6.2 12,700 2015-06-03 02:15:00 PPRM8
06178500 East Poplar River at international boundary 10 6.19 21 4,020 2015-06-03 02:30:00 EPRM8
06181000 Poplar River near Poplar MT 15.5 1.74 92 40,000 2015-06-03 02:30:00 PLRM8
06183450 Big Muddy Creek near Antelope MT 12 2.62 23 3,190 2015-06-03 02:15:00 BGCM8
06185110 Big Muddy Creek nr mouth nr Culbertson MT   5.97 93 1,860 2015-06-03 02:15:00  
06185500 Missouri River near Culbertson MT 19 3.77 8,840 104,000 2015-06-03 02:00:00 CLBM8
06186500 Yellowstone River at Yellowstone Lk Outlet YNP 9 5.06 2,600 9,950 2015-06-03 02:30:00 YLOW4
06187915 Soda Butte Cr at Park Bndry at Silver Gate   2.93 574 1,250 2015-06-03 02:45:00 SBCM8
06188000 Lamar River nr Tower Ranger Station YNP 15 6.11 4,970 19,500 2015-06-03 02:15:00 TFLW4
06190540 Boiling River at Mammoth,YNP   1.16 25 36 2015-06-03 02:15:00 BRMW4
06191000 Gardner River near Mammoth YNP   3.17 577 2,110 2015-06-03 02:45:00 GDRM8
06191500 Yellowstone River at Corwin Springs MT 11 6.12 10,600 32,200 2015-06-03 02:00:00 CORM8
06192500 Yellowstone River near Livingston MT 9.5 6.77 13,400 40,600 2015-06-03 02:45:00 LIVM8
06195600 Shields River nr Livingston MT 5.5 3.11 1,190 5,600 2015-06-03 02:30:00 SLDM8
06200000 Boulder River at Big Timber MT 7 6.97 4,680 9,940 2015-06-02 14:45:00 BTMM8
06204050 West Rosebud Creek near Roscoe MT   0.76 57 1,630 2015-06-03 03:00:00 WRDM8
06204070 W Rosebud Cr at Emerald Lk Campground nr Roscoe   2.15 215 1,390 2015-06-01 15:30:00 WREM8
06205000 Stillwater River near Absarokee MT 6.5 5.39 4,680 12,000 2015-06-03 02:15:00 SRAM8
06207500 Clarks Fork Yellowstone River nr Belfry MT 8 6.58 6,630 14,800 2015-06-03 03:00:00 BFYM8
06208500 Clarks Fork Yellowstone River at Edgar MT 8.5 7.10 6,490 11,100 2015-06-03 02:30:00 EDGM8
06209500 Rock Creek near Red Lodge MT   6.65 653 3,110 2015-06-03 03:00:00 ROKM8
06211000 Red Lodge Cr ab Cooney Re nr Boyd MT   3.40 368 4,700 2015-06-03 02:15:00 BYDM8
06211500 Willow Creek near Boyd MT   3.42 71 2,110 2015-06-03 02:30:00 BOYM8
06214500 Yellowstone River at Billings MT 13.5 10.39 37,900 82,000 2015-06-03 02:00:00 BILM8
06216900 Pryor Creek nr Huntley MT   4.90 Rat 17,500 2015-06-03 02:30:00  
06287000 Bighorn River near St. Xavier, MT   63.91 10,400 37,400 2015-06-03 02:15:00 STXM8
06287800 Bighorn River at bridge, at St. Xavier, MT   10.43 12,000 8,180 2015-06-03 02:30:00  
06288400 Bighorn River at Two Leggins Bridge, near Hardin   13.42 10,700 9,000 2015-06-03 02:30:00  
06289000 Little Bighorn River at State Line nr Wyola MT   3.87 805 2,730 2015-06-03 03:00:00 LBSM8
06294000 Little Bighorn River near Hardin MT 8 5.31 1,580 22,600 2015-06-03 02:15:00 HRDM8
06294500 Bighorn River ab Tullock Cr nr Bighorn MT   6.25 11,900 33,200 2015-06-03 02:00:00 BGHM8
06295000 Yellowstone River at Forsyth MT 14 7.75 41,800 109,800 2015-06-03 02:45:00 FRYM8
06295113 Rosebud C at Reservation Bndry nr Kirby MT   3.83 25 1,720 2015-06-03 02:45:00 RCRM8
06296003 Rosebud Creek at mouth near Rosebud MT   6.80 Rat 3,700 2015-06-03 02:30:00  
06306300 Tongue River at State Line nr Decker MT   7.43 3,440 17,500 2015-06-03 02:45:00 DSLM8
06307500 Tongue River at Tongue R Dam nr Decker MT   15.31 3,340 10,800 2015-06-03 02:30:00 DKRM8
06307600 Hanging Woman Creek near Birney MT   1.09 2.7 2,060 2015-06-03 02:00:00 HWCM8
06307616 Tongue R at Birney Day School Br nr Birney MT 6 6.00 3,410 5,340 2015-06-03 02:30:00 BNYM8
06307740 Otter Creek at Ashland MT   1.50 7.3 650 2015-06-03 02:00:00 OCAM8
06307830 Tongue R bl Brandenberg bridge nr Ashland MT   9.31 3,090 8,340 2015-06-03 02:15:00  
06308400 Pumpkin Creek near Miles City MT 13 2.50 5.7 7,900 2015-06-03 01:45:00 PMKM8
06308500 Tongue River at Miles City MT 10 6.96 2,960 15,300 2015-06-03 02:00:00 MICM8
06309000 Yellowstone River at Miles City MT 13 9.61 40,700 102,000 2015-06-03 02:00:00 MILM8
06324500 Powder River at Moorhead MT   7.56 3,820 100,000 2015-06-03 02:45:00 MHDM8
06326500 Powder River near Locate MT 9 5.25 5,290 31,000 2015-06-03 02:00:00 LOCM8
06327500 Yellowstone River at Glendive MT 53.5 48.80 41,700 125,000 2015-06-03 02:00:00 GLNM8
06329500 Yellowstone River near Sidney MT 19 11.69 39,900 159,000 2015-06-03 02:00:00 SIDM8
12301300 Tobacco River near Eureka MT   3.99 932 3,180 2015-06-03 02:00:00 TOBM8
12301933 Kootenai River bl Libby Dam nr Libby MT 27.5 22.65 19,800 54,000 2015-06-03 02:00:00 KBDM8
12302055 Fisher River near Libby MT 7.5 3.84 337 12,000 2015-06-03 02:45:00 FISM8
12304500 Yaak River near Troy MT 8 5.17 1,470 13,400 2015-06-03 02:45:00 TRYM8
12323240 Blacktail Creek at Butte MT 4.3 1.41 35 303 2015-06-03 02:45:00 BKTM8
12323250 Silver Bow Cr bl Blacktail Cr at Butte MT   1.79 37 447 2015-06-03 02:45:00 SLVM8
12323600 Silver Bow Creek at Opportunity MT   2.62 133 1,300 2015-06-03 02:45:00 OPPM8
12323670 Mill Creek nr Anaconda, MT   3.23 157 432 2015-06-03 02:00:00 MCAM8
12323700 Mill Creek at Opportunity, MT   2.75 94 284 2015-06-03 02:30:00 MCOM8
12323710 Willow Creek nr Anaconda, MT   2.29 17 165 2015-06-03 02:00:00 WCAM8
12323720 Willow Creek at Opportunity, MT   4.52 38 202 2015-06-03 02:30:00 WCOM8
12323750 Silver Bow Creek at Warm Springs MT   2.77 259 1,320 2015-06-03 02:30:00 WMSM8
12323760 Warm Springs Creek near Anaconda MT 4.4 3.15 293 930 2015-06-03 02:30:00 ANDM8
12323770 Warm Springs Creek at Warm Springs MT   3.98 187 828 2015-06-03 02:45:00 WSPM8
12323800 Clark Fork near Galen MT   3.22 472 1,410 2015-06-03 02:30:00 GALM8
12323840 Lost Creek near Anaconda MT   3.54 26 101 2015-06-03 02:00:00  
12323850 Lost Creek near Galen, MT   1.74 28 164 2015-06-03 02:30:00 LCGM8
12324200 Clark Fork at Deer Lodge MT 6 3.54 661 2,500 2015-06-03 02:30:00 DLGM8
12324400 Clark Fork ab Little Blackfoot R nr Garrison MT   4.62 816 2,690 2015-06-03 02:45:00  
12324590 Little Blackfoot River near Garrison MT   2.16 325 8,650 2015-06-03 02:30:00 LBFM8
12324680 Clark Fork at Goldcreek MT   5.74 1,370 12,000 2015-06-03 02:00:00 GLDM8
12325000 Georgetown Lake near Philipsburg, MT   6429.18

 

  2015-06-03 02:15:00  
12325500 Flint Creek near Southern Cross MT   0.85 30 192 2015-06-03 02:45:00 FTCM8
12329500 Flint Creek at Maxville MT   2.76 153 1,680 2015-06-03 02:45:00 FLNM8
12330000 Boulder Creek at Maxville MT   2.40 145 1,580 2015-06-03 02:30:00 BMXM8
12331500 Flint Creek near Drummond MT   2.58 155 1,460 2015-06-03 02:30:00 FCKM8
12331800 Clark Fork near Drummond MT 8 4.58 1,340 9,800 2015-06-03 02:15:00 DRMM8
12332000 Middle Fork Rock Cr nr Philipsburg MT   2.77 401 1,680 2015-06-03 02:15:00 MFRM8
12334510 Rock Creek near Clinton MT 9 6.61 1,340 6,500 2015-06-03 02:45:00 RCCM8
12334550 Clark Fork at Turah Bridge nr Bonner MT   5.66 2,820 13,300 2015-06-03 02:30:00 BNRM8
12335100 Blackfoot R ab Nevada Cr nr Helmville MT   5.78 1,110 4,860 2015-06-03 02:45:00 BLAM8
12335500 Nevada Cr ab reservoir, nr Helmville, MT   2.29 78 1,800 2015-06-03 02:45:00 NVDM8
12338300 NF Blackfoot R ab Dry Gulch nr Ovando MT   4.42 1,500 4,700 2015-06-03 02:00:00 NFRM8
12340000 Blackfoot River near Bonner MT 10 5.12 3,940 19,200 2015-06-03 02:45:00 BONM8
12340500 Clark Fork above Missoula MT 10 5.92 6,760 48,000 2015-06-03 03:00:00 ABOM8
12342500 West Fork Bitterroot River nr Conner MT   2.82 788 4,060 2015-06-03 02:15:00 WFBM8
12344000 Bitterroot River near Darby MT 7.5 4.55 2,860 11,500 2015-06-03 02:15:00 DARM8
12350250 Bitterroot River at Bell Crossing nr Victor MT   7.81 6,390 18,700 2015-06-03 02:45:00 VIBM8
12352500 Bitterroot River near Missoula MT 11 7.75 8,450 38,300 2015-06-03 02:45:00 BITM8
12353000 Clark Fork below Missoula MT 11 6.04 15,200 55,100 2015-06-03 03:00:00 BELM8
12354000 St. Regis River near St. Regis, MT 8 3.10 451 29,000 2015-06-03 02:45:00 STRM8
12354500 Clark Fork at St. Regis MT 19 10.63 16,500 68,900 2015-06-03 02:45:00 SRGM8
12355000 Flathead River at Flathead British Columbia 10.5 7.70 3,910 16,300 2015-06-03 02:30:00 NFFQ2
12355500 N F Flathead River nr Columbia Falls MT 13 7.52 12,700 69,100 2015-06-03 02:45:00 FCFM8
12358500 M F Flathead River near West Glacier MT 10 5.79 10,300 140,000 2015-06-03 02:45:00 WGCM8
12359800 S F Flathead R ab Twin C nr Hungry Horse MT   9.66 7,780 50,900 2015-06-03 02:45:00 TNCM8
12362000 Hungry Horse Reservoir nr Hungry Horse MT   3544.68

 

  2015-06-03 02:45:00 HHWM8
12362500 S F Flathead River nr Columbia Falls MT   7.42 4,800 46,200 2015-06-03 02:45:00  
12363000 Flathead River at Columbia Falls MT 13 10.15 27,100 176,000 2015-06-03 02:45:00 CFMM8
12365700 Stillwater River at Lawrence Park, at Kalispell 7.5 4.00 490 3,940 2015-06-03 02:45:00 SRLM8
12366080 Whitefish River nr mouth at Kalispell, MT 8.3 4.17 431 1,450 2015-06-03 02:45:00 WFRM8
12366500 Flathead River at Foys Bend nr Kalispell MT   97.04

 

  2015-06-03 02:45:00  
12370000 Swan River near Bigfork, MT 6.5 4.41 2,890 8,890 2015-06-03 02:00:00 SWRM8
12371550 Flathead Lake at Polson MT   2891.88

 

  2015-06-03 02:30:00 KERM8
12372000 Flathead River near Polson MT 18 7.43 12,900 110,000 2015-06-03 02:30:00 FPOM8
12374250 Mill Cr ab Bassoo Cr nr Niarada MT   1.44 12 283 2015-06-03 02:15:00  
12375900 South Crow Creek near Ronan MT   2.51 46 608 2015-06-03 02:15:00  
12377150 Mission Creek ab reservoir nr St. Ignatius MT   3.17 252 706 2015-06-03 02:15:00 MSNM8
12381400 South Fork Jocko River near Arlee MT   2.37 171 1,220 2015-06-03 02:15:00 ARLM8
12388700 Flathead River at Perma MT   10.52 13,200 54,900 2015-06-03 02:30:00 PERM8
12389000 Clark Fork near Plains MT 16 8.05 28,900 134,000 2015-06-03 02:45:00 PLNM8
12389500 Thompson River near Thompson Falls MT 7 3.44 515 6,190 2015-06-03 02:45:00 THRM8
12390700 Prospect Creek at Thompson Falls MT 7.5 2.05 229 5,490 2015-06-03 02:15:00 PRCM8
480608115242901 Libby Wetland Site bl Schrieber Lake nr Libby, MT   0.77 2.2 34 2015-06-03 02:30:00